createdAt,value
2019-03-17T00:00:12.252Z,98.00
2019-03-17T00:02:42.824Z,98.00
2019-03-17T00:05:13.525Z,98.40
2019-03-17T00:07:44.171Z,98.00
2019-03-17T00:10:14.767Z,98.00
2019-03-17T00:12:45.344Z,98.00
2019-03-17T00:15:15.976Z,98.10
2019-03-17T00:17:46.572Z,98.00
2019-03-17T00:20:17.167Z,98.20
2019-03-17T00:22:47.779Z,98.10
2019-03-17T00:25:18.424Z,98.00
2019-03-17T00:27:49.031Z,98.10
2019-03-17T00:30:19.608Z,98.00
2019-03-17T00:32:50.184Z,98.00
2019-03-17T00:35:20.793Z,98.00
2019-03-17T00:37:51.347Z,98.10
2019-03-17T00:40:21.962Z,98.00
2019-03-17T00:42:52.546Z,97.90
2019-03-17T00:45:23.324Z,98.00
2019-03-17T00:47:53.899Z,97.90
2019-03-17T00:50:24.522Z,97.80
2019-03-17T00:52:55.138Z,97.60
2019-03-17T00:55:25.707Z,97.80
2019-03-17T00:57:56.353Z,97.70
2019-03-17T01:00:33.209Z,98.00
2019-03-17T01:03:03.861Z,97.70
2019-03-17T01:05:34.450Z,97.60
2019-03-17T01:08:05.107Z,97.60
2019-03-17T01:10:35.753Z,97.40
2019-03-17T01:13:06.391Z,97.60
2019-03-17T01:15:37.025Z,97.70
2019-03-17T01:18:07.643Z,97.50
2019-03-17T01:20:38.259Z,97.50
2019-03-17T01:23:08.918Z,97.60
2019-03-17T01:25:39.571Z,97.20
2019-03-17T01:28:10.150Z,97.20
2019-03-17T01:30:40.700Z,97.30
2019-03-17T01:33:11.347Z,97.20
2019-03-17T01:35:41.897Z,97.00
2019-03-17T01:38:12.536Z,97.10
2019-03-17T01:40:43.114Z,97.10
2019-03-17T01:43:13.725Z,96.80
2019-03-17T01:45:44.310Z,96.80
2019-03-17T01:48:14.899Z,96.70
2019-03-17T01:50:45.505Z,96.80
2019-03-17T01:53:16.093Z,96.80
2019-03-17T01:55:46.713Z,97.10
2019-03-17T01:58:17.343Z,97.10
2019-03-17T02:00:47.971Z,97.10
2019-03-17T02:03:18.525Z,97.20
2019-03-17T02:05:49.200Z,97.20
2019-03-17T02:08:19.838Z,97.20
2019-03-17T02:10:50.469Z,97.30
2019-03-17T02:13:21.104Z,97.30
2019-03-17T02:15:51.709Z,97.20
2019-03-17T02:18:22.245Z,97.30
2019-03-17T02:20:52.847Z,97.10
2019-03-17T02:23:23.433Z,97.10
2019-03-17T02:25:54.435Z,97.10
2019-03-17T02:28:25.097Z,97.20
2019-03-17T02:30:55.718Z,97.20
2019-03-17T02:33:26.305Z,96.90
2019-03-17T02:35:57.010Z,96.70
2019-03-17T02:38:27.565Z,96.90
2019-03-17T02:40:58.194Z,97.00
2019-03-17T02:43:28.766Z,97.00
2019-03-17T02:46:02.846Z,97.00
2019-03-17T02:48:31.718Z,96.70
2019-03-17T02:51:02.439Z,96.70
2019-03-17T02:53:33.061Z,96.80
2019-03-17T02:56:03.626Z,96.80
2019-03-17T02:58:34.234Z,96.60
2019-03-17T03:01:04.876Z,96.70
2019-03-17T03:03:35.561Z,96.70
2019-03-17T03:06:06.102Z,96.90
2019-03-17T03:08:36.759Z,96.80
2019-03-17T03:11:07.511Z,96.80
2019-03-17T03:13:38.268Z,96.70
2019-03-17T03:16:08.904Z,96.90
2019-03-17T03:18:39.490Z,96.90
2019-03-17T03:21:10.135Z,96.80
2019-03-17T03:23:40.695Z,96.90
2019-03-17T03:26:11.314Z,96.90
2019-03-17T03:28:41.920Z,97.00
2019-03-17T03:31:12.588Z,97.10
2019-03-17T03:33:45.038Z,97.20
2019-03-17T03:36:15.569Z,97.10
2019-03-17T03:38:46.208Z,97.10
2019-03-17T03:41:16.752Z,97.10
2019-03-17T03:43:47.411Z,97.10
2019-03-17T03:46:18.063Z,97.20
2019-03-17T03:48:48.620Z,97.10
2019-03-17T03:51:19.287Z,97.20
2019-03-17T03:53:49.779Z,97.20
2019-03-17T03:56:20.494Z,97.10
2019-03-17T03:58:51.096Z,97.00
2019-03-17T04:01:21.704Z,97.00
2019-03-17T04:03:52.300Z,96.90
2019-03-17T04:06:26.769Z,96.90
2019-03-17T04:08:55.243Z,97.00
2019-03-17T04:11:25.793Z,97.00
2019-03-17T04:13:56.367Z,97.00
2019-03-17T04:16:26.936Z,96.80
2019-03-17T04:18:57.541Z,96.90
2019-03-17T04:21:28.096Z,97.00
2019-03-17T04:23:58.690Z,96.80
2019-03-17T04:26:29.560Z,96.60
2019-03-17T04:29:00.251Z,96.80
2019-03-17T04:31:30.953Z,96.80
2019-03-17T04:34:01.689Z,96.80
2019-03-17T04:36:39.984Z,96.80
2019-03-17T04:39:05.275Z,96.80
2019-03-17T04:41:35.862Z,96.80
2019-03-17T04:44:06.509Z,96.90
2019-03-17T04:46:37.079Z,97.10
2019-03-17T04:49:07.651Z,97.50
2019-03-17T04:51:38.321Z,97.80
2019-03-17T04:54:08.891Z,98.10
2019-03-17T04:56:39.454Z,98.70
2019-03-17T04:59:10.055Z,98.70
2019-03-17T05:01:40.629Z,99.30
2019-03-17T05:04:11.232Z,99.60
2019-03-17T05:06:52.127Z,99.80
2019-03-17T05:09:14.784Z,99.90
2019-03-17T05:11:45.402Z,99.90
2019-03-17T05:14:16.092Z,99.90
2019-03-17T05:16:47.689Z,99.90
2019-03-17T05:19:18.327Z,99.90
2019-03-17T05:21:50.252Z,99.90
2019-03-17T05:24:20.804Z,99.90
2019-03-17T05:26:51.415Z,99.90
2019-03-17T05:29:22.089Z,99.90
2019-03-17T05:31:52.659Z,99.90
2019-03-17T05:34:23.370Z,99.90
2019-03-17T05:37:05.271Z,99.90
2019-03-17T05:39:26.578Z,99.90
2019-03-17T05:42:01.537Z,99.90
2019-03-17T05:44:32.282Z,99.90
2019-03-17T05:47:02.969Z,99.90
2019-03-17T05:49:33.609Z,99.90
2019-03-17T05:52:04.240Z,99.90
2019-03-17T05:54:34.848Z,99.90
2019-03-17T05:57:05.447Z,99.90
2019-03-17T05:59:36.024Z,99.90
2019-03-17T06:02:06.618Z,99.90
2019-03-17T06:04:46.274Z,99.90
2019-03-17T06:07:18.855Z,99.90
2019-03-17T06:09:49.227Z,99.90
2019-03-17T06:12:19.936Z,99.90
2019-03-17T06:14:50.686Z,99.90
2019-03-17T06:17:21.342Z,99.90
2019-03-17T06:19:52.022Z,99.90
2019-03-17T06:22:22.981Z,99.90
2019-03-17T06:24:56.552Z,99.90
2019-03-17T06:27:27.213Z,99.90
2019-03-17T06:29:57.811Z,99.90
2019-03-17T06:32:28.416Z,99.90
2019-03-17T06:34:59.059Z,99.90
2019-03-17T06:37:31.309Z,99.90
2019-03-17T06:40:02.209Z,99.90
2019-03-17T06:42:32.987Z,99.90
2019-03-17T06:45:03.718Z,99.90
2019-03-17T06:47:34.274Z,99.90
2019-03-17T06:50:05.546Z,99.90
2019-03-17T06:52:36.265Z,99.90
2019-03-17T06:55:08.267Z,99.90
2019-03-17T06:57:38.997Z,99.90
2019-03-17T07:00:09.846Z,99.90
2019-03-17T07:02:40.372Z,99.90
2019-03-17T07:05:11.027Z,99.90
2019-03-17T07:07:44.222Z,99.90
2019-03-17T07:10:13.985Z,99.90
2019-03-17T07:12:44.559Z,99.90
2019-03-17T07:15:15.282Z,99.90
2019-03-17T07:17:45.814Z,99.90
2019-03-17T07:20:16.414Z,99.90
2019-03-17T07:22:47.122Z,99.90
2019-03-17T07:25:17.753Z,99.90
2019-03-17T07:27:48.427Z,99.90
2019-03-17T07:30:19.349Z,99.90
2019-03-17T07:32:49.959Z,99.90
2019-03-17T07:35:20.760Z,99.90
2019-03-17T07:37:56.704Z,99.90
2019-03-17T07:40:23.692Z,99.90
2019-03-17T07:42:54.206Z,99.90
2019-03-17T07:45:24.920Z,99.90
2019-03-17T07:47:55.494Z,99.90
2019-03-17T07:50:26.097Z,99.90
2019-03-17T07:52:56.660Z,99.90
2019-03-17T07:55:27.316Z,99.90
2019-03-17T07:57:57.910Z,99.90
2019-03-17T08:00:32.200Z,99.90
2019-03-17T08:03:00.995Z,99.90
2019-03-17T08:05:31.665Z,99.90
2019-03-17T08:08:09.413Z,99.90
2019-03-17T08:10:34.505Z,99.90
2019-03-17T08:13:05.083Z,99.90
2019-03-17T08:15:37.055Z,99.90
2019-03-17T08:18:07.625Z,99.90
2019-03-17T08:20:38.188Z,99.90
2019-03-17T08:23:08.783Z,99.90
2019-03-17T08:25:39.342Z,99.90
2019-03-17T08:28:09.898Z,99.90
2019-03-17T08:30:52.398Z,99.90
2019-03-17T08:33:12.871Z,99.90
2019-03-17T08:35:43.426Z,99.90
2019-03-17T08:38:21.870Z,99.90
2019-03-17T08:40:46.356Z,99.90
2019-03-17T08:43:16.951Z,99.90
2019-03-17T08:45:47.538Z,99.90
2019-03-17T08:48:18.209Z,99.90
2019-03-17T08:50:48.743Z,99.90
2019-03-17T08:53:19.317Z,99.90
2019-03-17T08:55:49.923Z,99.90
2019-03-17T08:58:20.564Z,99.90
2019-03-17T09:00:51.206Z,99.90
2019-03-17T09:03:21.741Z,99.90
2019-03-17T09:05:52.287Z,99.90
2019-03-17T09:08:34.481Z,99.90
2019-03-17T09:10:57.867Z,99.90
2019-03-17T09:13:28.554Z,99.90
2019-03-17T09:15:59.107Z,99.90
2019-03-17T09:18:29.872Z,99.90
2019-03-17T09:21:00.442Z,99.90
2019-03-17T09:23:30.998Z,99.90
2019-03-17T09:26:01.702Z,99.90
2019-03-17T09:28:32.240Z,99.90
2019-03-17T09:31:06.111Z,99.90
2019-03-17T09:33:35.282Z,99.90
2019-03-17T09:36:05.822Z,99.90
2019-03-17T09:38:46.863Z,99.90
2019-03-17T09:41:08.696Z,99.90
2019-03-17T09:43:39.228Z,99.90
2019-03-17T09:46:09.836Z,99.90
2019-03-17T09:48:40.381Z,99.90
2019-03-17T09:51:10.970Z,99.90
2019-03-17T09:53:41.550Z,99.90
2019-03-17T09:56:12.113Z,99.90
2019-03-17T09:58:45.544Z,99.90
2019-03-17T10:01:15.087Z,99.90
2019-03-17T10:03:45.648Z,99.90
2019-03-17T10:06:16.216Z,99.90
2019-03-17T10:08:59.031Z,99.90
2019-03-17T10:11:19.015Z,99.90
2019-03-17T10:13:49.552Z,99.90
2019-03-17T10:16:20.242Z,99.90
2019-03-17T10:18:50.839Z,99.90
2019-03-17T10:21:21.433Z,99.90
2019-03-17T10:23:52.038Z,99.90
2019-03-17T10:26:22.601Z,99.90
2019-03-17T10:28:53.146Z,99.90
2019-03-17T10:31:23.701Z,99.90
2019-03-17T10:33:54.239Z,99.90
2019-03-17T10:36:24.796Z,99.90
2019-03-17T10:38:55.360Z,99.90
2019-03-17T10:41:26.052Z,99.90
2019-03-17T10:43:56.636Z,99.90
2019-03-17T10:46:27.216Z,99.90
2019-03-17T10:48:57.797Z,99.90
2019-03-17T10:51:28.377Z,99.90
2019-03-17T10:53:59.065Z,99.90
2019-03-17T10:56:29.823Z,99.90
2019-03-17T10:59:00.370Z,99.90
2019-03-17T11:01:31.022Z,99.90
2019-03-17T11:04:20.671Z,99.90
2019-03-17T11:06:51.198Z,99.90
2019-03-17T11:09:25.500Z,99.90
2019-03-17T11:11:56.896Z,99.90
2019-03-17T11:14:27.548Z,99.90
2019-03-17T11:16:58.128Z,99.90
2019-03-17T11:19:28.800Z,99.90
2019-03-17T11:21:59.370Z,99.90
2019-03-17T11:24:30.203Z,99.90
2019-03-17T11:27:00.928Z,99.90
2019-03-17T11:29:31.661Z,99.90
2019-03-17T11:32:02.218Z,99.90
2019-03-17T11:34:32.931Z,99.90
2019-03-17T11:37:03.627Z,99.90
2019-03-17T11:39:37.949Z,99.90
2019-03-17T11:42:06.489Z,99.90
2019-03-17T11:44:37.084Z,99.90
2019-03-17T11:47:07.696Z,99.90
2019-03-17T11:49:38.278Z,99.90
2019-03-17T11:52:08.863Z,99.90
2019-03-17T11:54:39.439Z,99.90
2019-03-17T11:57:10.263Z,99.90
2019-03-17T11:59:46.117Z,99.90
2019-03-17T12:02:26.030Z,99.90
2019-03-17T12:04:48.964Z,99.90
2019-03-17T12:07:19.499Z,99.90
2019-03-17T12:09:50.657Z,99.90
2019-03-17T12:12:22.625Z,99.60
2019-03-17T12:14:53.205Z,99.10
2019-03-17T12:17:23.774Z,97.10
2019-03-17T12:19:54.343Z,96.00
2019-03-17T12:22:28.237Z,95.80
2019-03-17T12:24:58.758Z,96.50
2019-03-17T12:27:29.352Z,96.10
2019-03-17T12:29:59.998Z,96.00
2019-03-17T12:32:30.679Z,95.90
2019-03-17T12:35:01.281Z,94.90
2019-03-17T12:37:31.976Z,94.40
2019-03-17T12:40:03.390Z,94.10
2019-03-17T12:42:34.203Z,94.50
2019-03-17T12:45:04.876Z,94.70
2019-03-17T12:47:37.333Z,94.80
2019-03-17T12:50:07.910Z,94.70
2019-03-17T12:52:38.516Z,94.20
2019-03-17T12:55:09.111Z,94.10
2019-03-17T12:57:39.725Z,95.10
2019-03-17T13:00:13.807Z,95.10
2019-03-17T13:02:44.393Z,95.30
2019-03-17T13:05:15.291Z,95.30
2019-03-17T13:07:46.154Z,94.30
2019-03-17T13:10:17.087Z,94.40
2019-03-17T13:12:47.653Z,93.60
2019-03-17T13:15:18.271Z,93.50
2019-03-17T13:17:48.818Z,93.90
2019-03-17T13:20:19.610Z,93.30
2019-03-17T13:22:50.245Z,93.40
2019-03-17T13:25:20.879Z,93.70
2019-03-17T13:27:51.451Z,93.70
2019-03-17T13:30:22.070Z,90.80
2019-03-17T13:32:52.774Z,85.00
2019-03-17T13:35:23.333Z,90.80
2019-03-17T13:37:53.917Z,91.50
2019-03-17T13:40:29.547Z,91.90
2019-03-17T13:42:56.806Z,93.10
2019-03-17T13:45:27.356Z,94.10
2019-03-17T13:47:57.891Z,94.60
2019-03-17T13:50:28.514Z,95.20
2019-03-17T13:52:59.069Z,95.50
2019-03-17T13:55:29.845Z,95.70
2019-03-17T13:58:00.672Z,95.60
2019-03-17T14:00:31.288Z,95.90
2019-03-17T14:03:02.880Z,96.30
2019-03-17T14:05:33.555Z,96.80
2019-03-17T14:08:04.126Z,97.20
2019-03-17T14:10:40.795Z,98.00
2019-03-17T14:13:06.967Z,98.50
2019-03-17T14:15:37.516Z,98.80
2019-03-17T14:18:08.201Z,99.00
2019-03-17T14:20:38.795Z,98.70
2019-03-17T14:23:09.393Z,98.60
2019-03-17T14:25:39.979Z,98.30
2019-03-17T14:28:10.518Z,98.00
2019-03-17T14:30:41.103Z,97.90
2019-03-17T14:33:11.633Z,97.90
2019-03-17T14:35:42.198Z,97.90
2019-03-17T14:38:12.764Z,97.80
2019-03-17T14:40:52.936Z,97.60
2019-03-17T14:43:15.698Z,97.30
2019-03-17T14:45:46.281Z,96.80
2019-03-17T14:48:16.796Z,96.10
2019-03-17T14:50:47.453Z,96.20
2019-03-17T14:53:18.013Z,96.60
2019-03-17T14:55:48.548Z,96.60
2019-03-17T14:58:19.051Z,96.80
2019-03-17T15:00:49.596Z,96.90
2019-03-17T15:03:20.162Z,97.00
2019-03-17T15:05:50.696Z,97.20
2019-03-17T15:08:21.322Z,97.20
2019-03-17T15:10:52.053Z,97.30
2019-03-17T15:13:22.670Z,97.40
2019-03-17T15:16:02.403Z,97.20
2019-03-17T15:18:26.011Z,97.20
2019-03-17T15:20:56.713Z,97.20
2019-03-17T15:23:27.297Z,97.00
2019-03-17T15:25:57.832Z,96.80
2019-03-17T15:28:28.475Z,95.70
2019-03-17T15:31:10.970Z,95.00
2019-03-17T15:33:31.514Z,95.00
2019-03-17T15:36:02.105Z,95.50
2019-03-17T15:38:32.740Z,96.00
2019-03-17T15:41:03.399Z,96.50
2019-03-17T15:43:33.996Z,96.80
2019-03-17T15:46:06.797Z,97.10
2019-03-17T15:48:37.404Z,97.40
2019-03-17T15:51:19.408Z,97.40
2019-03-17T15:53:40.302Z,97.60
2019-03-17T15:56:10.933Z,97.50
2019-03-17T15:58:41.905Z,97.40
2019-03-17T16:01:12.431Z,97.40
2019-03-17T16:03:42.992Z,97.30
2019-03-17T16:06:13.585Z,97.20
2019-03-17T16:08:44.089Z,96.80
2019-03-17T16:11:14.707Z,96.70
2019-03-17T16:13:45.277Z,96.70
2019-03-17T16:16:15.990Z,96.60
2019-03-17T16:18:46.575Z,96.30
2019-03-17T16:21:17.109Z,96.00
2019-03-17T16:23:47.632Z,95.70
2019-03-17T16:26:18.238Z,95.60
2019-03-17T16:28:48.831Z,95.50
2019-03-17T16:31:19.451Z,95.60
2019-03-17T16:33:50.037Z,95.40
2019-03-17T16:36:20.594Z,95.30
2019-03-17T16:38:51.177Z,95.00
2019-03-17T16:41:21.752Z,94.80
2019-03-17T16:43:52.357Z,95.10
2019-03-17T16:46:23.982Z,95.20
2019-03-17T16:48:54.608Z,95.00
2019-03-17T16:51:28.918Z,94.90
2019-03-17T16:54:00.576Z,95.10
2019-03-17T16:56:31.127Z,95.20
2019-03-17T16:59:01.763Z,95.30
2019-03-17T17:01:32.927Z,95.30
2019-03-17T17:04:03.959Z,95.30
2019-03-17T17:06:34.567Z,95.40
2019-03-17T17:09:06.947Z,95.30
2019-03-17T17:11:37.478Z,95.40
2019-03-17T17:14:08.224Z,95.40
2019-03-17T17:16:38.741Z,95.40
2019-03-17T17:19:09.396Z,95.30
2019-03-17T17:21:39.945Z,95.00
2019-03-17T17:24:10.486Z,95.10
2019-03-17T17:26:41.054Z,95.20
2019-03-17T17:29:11.629Z,95.10
2019-03-17T17:31:42.197Z,95.10
2019-03-17T17:34:13.310Z,95.20
2019-03-17T17:36:43.817Z,95.00
2019-03-17T17:39:15.468Z,94.40
2019-03-17T17:41:46.987Z,94.60
2019-03-17T17:44:17.554Z,94.10
2019-03-17T17:46:48.177Z,94.80
2019-03-17T17:49:18.745Z,94.20
2019-03-17T17:51:49.342Z,94.30
2019-03-17T17:54:19.923Z,94.30
2019-03-17T17:56:51.960Z,93.90
2019-03-17T17:59:22.680Z,93.90
2019-03-17T18:01:53.239Z,94.10
2019-03-17T18:04:23.911Z,93.40
2019-03-17T18:06:55.554Z,93.50
2019-03-17T18:09:26.302Z,93.70
2019-03-17T18:11:56.905Z,93.60
2019-03-17T18:14:27.609Z,93.70
2019-03-17T18:16:58.351Z,93.70
2019-03-17T18:19:29.091Z,94.00
2019-03-17T18:21:59.848Z,94.00
2019-03-17T18:24:30.624Z,94.00
2019-03-17T18:27:01.127Z,94.00
2019-03-17T18:29:31.736Z,94.10
2019-03-17T18:32:03.870Z,94.10
2019-03-17T18:34:34.467Z,93.90
2019-03-17T18:37:08.570Z,94.10
2019-03-17T18:39:39.103Z,94.00
2019-03-17T18:42:09.704Z,94.50
2019-03-17T18:44:40.304Z,94.20
2019-03-17T18:47:10.978Z,94.10
2019-03-17T18:49:41.566Z,94.30
2019-03-17T18:52:12.117Z,94.30
2019-03-17T18:54:42.692Z,94.30
2019-03-17T18:57:13.279Z,94.50
2019-03-17T18:59:43.961Z,94.50
2019-03-17T19:02:14.506Z,94.40
2019-03-17T19:04:45.167Z,94.40
2019-03-17T19:07:15.846Z,94.50
2019-03-17T19:09:46.487Z,94.10
2019-03-17T19:12:17.049Z,94.10
2019-03-17T19:14:47.631Z,94.30
2019-03-17T19:17:18.254Z,94.10
2019-03-17T19:19:48.935Z,94.00
2019-03-17T19:22:19.500Z,94.00
2019-03-17T19:24:50.158Z,94.10
2019-03-17T19:27:20.756Z,94.10
2019-03-17T19:29:51.469Z,94.30
2019-03-17T19:32:22.117Z,94.70
2019-03-17T19:34:52.680Z,95.00
2019-03-17T19:37:23.255Z,95.20
2019-03-17T19:39:53.853Z,95.10
2019-03-17T19:42:25.678Z,95.30
2019-03-17T19:44:56.275Z,95.50
2019-03-17T19:47:27.032Z,95.60
2019-03-17T19:49:57.820Z,95.70
2019-03-17T19:52:28.464Z,95.90
2019-03-17T19:55:00.587Z,96.00
2019-03-17T19:57:31.124Z,96.10
2019-03-17T20:00:01.894Z,96.20
2019-03-17T20:02:32.531Z,96.40
2019-03-17T20:05:03.101Z,96.40
2019-03-17T20:07:33.914Z,96.40
2019-03-17T20:10:04.928Z,96.40
2019-03-17T20:12:35.501Z,96.40
2019-03-17T20:15:06.353Z,96.50
2019-03-17T20:17:36.964Z,96.60
2019-03-17T20:20:08.946Z,97.20
2019-03-17T20:22:39.489Z,96.90
2019-03-17T20:25:10.928Z,96.90
2019-03-17T20:27:41.457Z,96.90
2019-03-17T20:30:13.185Z,97.00
2019-03-17T20:32:43.756Z,96.80
2019-03-17T20:35:14.630Z,96.80
2019-03-17T20:37:45.173Z,96.80
2019-03-17T20:40:15.793Z,96.80
2019-03-17T20:42:46.339Z,96.90
2019-03-17T20:45:20.196Z,96.80
2019-03-17T20:47:56.901Z,96.80
2019-03-17T20:50:28.094Z,96.70
2019-03-17T20:52:58.688Z,96.90
2019-03-17T20:55:29.313Z,96.90
2019-03-17T20:57:59.935Z,97.00
2019-03-17T21:00:30.488Z,96.80
2019-03-17T21:03:01.076Z,96.80
2019-03-17T21:05:31.786Z,96.90
2019-03-17T21:08:03.445Z,97.00
2019-03-17T21:10:34.050Z,96.90
2019-03-17T21:13:04.599Z,96.90
2019-03-17T21:15:35.165Z,97.00
2019-03-17T21:18:05.736Z,97.00
2019-03-17T21:20:36.345Z,97.00
2019-03-17T21:23:06.895Z,97.10
2019-03-17T21:25:37.422Z,97.10
2019-03-17T21:28:07.961Z,97.10
2019-03-17T21:30:38.521Z,97.20
2019-03-17T21:33:09.104Z,97.20
2019-03-17T21:35:39.649Z,97.20
2019-03-17T21:38:10.235Z,97.30
2019-03-17T21:40:56.383Z,97.30
2019-03-17T21:43:13.043Z,97.20
2019-03-17T21:45:43.706Z,97.10
2019-03-17T21:48:14.285Z,97.20
2019-03-17T21:50:44.806Z,97.30
2019-03-17T21:53:15.321Z,97.30
2019-03-17T21:55:45.890Z,97.30
2019-03-17T21:58:16.436Z,97.40
2019-03-17T22:00:46.986Z,97.50
2019-03-17T22:03:21.051Z,97.50
2019-03-17T22:05:51.594Z,97.60
2019-03-17T22:08:22.170Z,97.70
2019-03-17T22:10:52.736Z,97.70
2019-03-17T22:13:23.320Z,97.90
2019-03-17T22:15:53.854Z,97.70
2019-03-17T22:18:24.415Z,97.80
2019-03-17T22:20:54.931Z,97.90
2019-03-17T22:23:25.478Z,98.00
2019-03-17T22:25:56.015Z,98.00
2019-03-17T22:28:26.532Z,97.90
2019-03-17T22:30:57.145Z,98.00
2019-03-17T22:33:27.710Z,98.00
2019-03-17T22:35:58.227Z,98.00
2019-03-17T22:38:28.829Z,97.90
2019-03-17T22:40:59.348Z,97.90
2019-03-17T22:43:29.905Z,98.00
2019-03-17T22:46:00.482Z,97.90
2019-03-17T22:48:31.022Z,97.90
2019-03-17T22:51:01.713Z,97.80
2019-03-17T22:53:32.283Z,98.00
2019-03-17T22:56:02.907Z,97.90
2019-03-17T22:58:33.423Z,97.90
2019-03-17T23:01:04.079Z,98.00
2019-03-17T23:03:34.644Z,97.90
2019-03-17T23:06:05.185Z,97.90
2019-03-17T23:08:35.745Z,97.90
2019-03-17T23:11:06.259Z,98.00
2019-03-17T23:13:36.829Z,98.10
2019-03-17T23:16:07.374Z,98.20
2019-03-17T23:18:37.942Z,98.20
2019-03-17T23:21:08.496Z,98.10
2019-03-17T23:23:39.563Z,98.30
2019-03-17T23:26:10.262Z,98.30
2019-03-17T23:28:40.802Z,98.20
2019-03-17T23:31:11.369Z,98.30
2019-03-17T23:33:41.989Z,98.20
2019-03-17T23:36:12.569Z,98.20
2019-03-17T23:38:43.128Z,98.40
2019-03-17T23:41:13.727Z,98.30
2019-03-17T23:43:44.252Z,98.50
2019-03-17T23:46:14.824Z,98.40
2019-03-17T23:48:45.343Z,98.40
2019-03-17T23:51:15.910Z,98.40
2019-03-17T23:53:46.528Z,98.50
2019-03-17T23:56:17.125Z,98.50
2019-03-17T23:58:47.701Z,98.60
